createdAt,value
2016-12-08T00:00:10.323Z,24.12
2016-12-08T00:01:35.515Z,24.16
2016-12-08T00:02:46.408Z,24.09
2016-12-08T00:03:57.412Z,24.15
2016-12-08T00:05:07.917Z,24.06
2016-12-08T00:06:18.422Z,24.05
2016-12-08T00:07:28.910Z,23.87
2016-12-08T00:08:53.947Z,23.96
2016-12-08T00:10:04.453Z,23.94
2016-12-08T00:11:14.967Z,23.77
2016-12-08T00:12:25.481Z,23.75
2016-12-08T00:13:36.181Z,23.72
2016-12-08T00:14:46.684Z,23.77
2016-12-08T00:16:11.715Z,23.69
2016-12-08T00:17:22.240Z,23.69
2016-12-08T00:18:32.745Z,23.71
2016-12-08T00:19:43.458Z,23.79
2016-12-08T00:20:53.967Z,23.71
2016-12-08T00:22:04.472Z,23.72
2016-12-08T00:23:14.973Z,23.79
2016-12-08T00:24:25.685Z,23.71
2016-12-08T00:25:36.706Z,23.79
2016-12-08T00:26:47.203Z,23.84
2016-12-08T00:27:57.725Z,23.78
2016-12-08T00:29:08.228Z,23.71
2016-12-08T00:30:33.465Z,23.77
2016-12-08T00:31:43.963Z,23.75
2016-12-08T00:32:54.458Z,23.81
2016-12-08T00:34:04.959Z,23.81
2016-12-08T00:35:15.611Z,23.77
2016-12-08T00:36:25.996Z,23.75
2016-12-08T00:37:36.383Z,23.74
2016-12-08T00:38:46.768Z,23.89
2016-12-08T00:39:57.338Z,23.86
2016-12-08T00:41:07.929Z,23.82
2016-12-08T00:42:18.319Z,23.77
2016-12-08T00:43:28.691Z,23.74
2016-12-08T00:44:39.092Z,23.71
2016-12-08T00:45:49.471Z,23.71
2016-12-08T00:47:14.598Z,23.68
2016-12-08T00:48:39.550Z,23.72
2016-12-08T00:49:49.934Z,23.6
2016-12-08T00:51:00.318Z,23.71
2016-12-08T00:52:11.179Z,23.67
2016-12-08T00:53:21.560Z,23.77
2016-12-08T00:54:31.951Z,23.69
2016-12-08T00:55:42.740Z,23.59
2016-12-08T00:56:53.151Z,23.62
2016-12-08T00:58:18.301Z,23.67
2016-12-08T00:59:28.696Z,23.59
2016-12-08T01:00:39.083Z,23.71
2016-12-08T01:01:49.678Z,23.69
2016-12-08T01:03:00.263Z,23.68
2016-12-08T01:04:10.655Z,23.64
2016-12-08T01:05:21.040Z,23.78
2016-12-08T01:06:31.834Z,23.74
2016-12-08T01:07:42.233Z,23.71
2016-12-08T01:08:52.622Z,23.71
2016-12-08T01:10:03.055Z,23.74
2016-12-08T01:11:13.458Z,23.62
2016-12-08T01:12:23.867Z,23.74
2016-12-08T01:13:34.663Z,23.74
2016-12-08T01:14:45.059Z,23.72
2016-12-08T01:15:55.460Z,23.72
2016-12-08T01:17:05.845Z,23.69
2016-12-08T01:18:16.285Z,23.75
2016-12-08T01:19:26.688Z,23.72
2016-12-08T01:20:37.757Z,23.75
2016-12-08T01:21:48.153Z,23.74
2016-12-08T01:22:58.545Z,23.78
2016-12-08T01:24:08.942Z,23.71
2016-12-08T01:25:19.333Z,23.62
2016-12-08T01:26:29.931Z,23.64
2016-12-08T01:27:40.342Z,23.59
2016-12-08T01:28:50.766Z,23.59
2016-12-08T01:30:01.170Z,23.62
2016-12-08T01:31:11.585Z,23.62
2016-12-08T01:32:21.984Z,23.64
2016-12-08T01:33:32.392Z,23.67
2016-12-08T01:34:42.800Z,23.59
2016-12-08T01:35:53.198Z,23.45
2016-12-08T01:37:03.603Z,23.49
2016-12-08T01:38:14.111Z,23.45
2016-12-08T01:39:24.513Z,23.41
2016-12-08T01:40:35.403Z,23.42
2016-12-08T01:41:45.811Z,23.42
2016-12-08T01:42:56.696Z,23.44
2016-12-08T01:44:07.305Z,23.42
2016-12-08T01:45:17.718Z,23.37
2016-12-08T01:46:28.128Z,23.38
2016-12-08T01:47:38.535Z,23.39
2016-12-08T01:48:48.930Z,23.31
2016-12-08T01:49:59.540Z,23.23
2016-12-08T01:51:09.942Z,23.34
2016-12-08T01:52:20.843Z,23.26
2016-12-08T01:53:31.241Z,23.37
2016-12-08T01:54:41.640Z,23.35
2016-12-08T01:55:52.237Z,23.21
2016-12-08T01:57:02.827Z,23.21
2016-12-08T01:58:27.821Z,23.12
2016-12-08T01:59:38.211Z,23.07
2016-12-08T02:00:48.593Z,22.99
2016-12-08T02:01:58.983Z,22.99
2016-12-08T02:03:09.388Z,22.97
2016-12-08T02:04:19.774Z,22.84
2016-12-08T02:05:30.166Z,22.86
2016-12-08T02:06:40.757Z,22.78
2016-12-08T02:07:51.142Z,22.79
2016-12-08T02:09:01.544Z,22.64
2016-12-08T02:10:11.950Z,22.79
2016-12-08T02:11:22.351Z,22.81
2016-12-08T02:12:32.770Z,22.7
2016-12-08T02:13:57.707Z,22.74
2016-12-08T02:15:08.606Z,22.72
2016-12-08T02:16:19.008Z,22.79
2016-12-08T02:17:29.587Z,22.72
2016-12-08T02:18:40.177Z,22.7
2016-12-08T02:21:30.083Z,22.64
2016-12-08T02:22:40.483Z,22.63
2016-12-08T02:23:50.877Z,22.57
2016-12-08T02:25:01.263Z,22.63
2016-12-08T02:26:11.689Z,22.61
2016-12-08T02:27:22.096Z,22.63
2016-12-08T02:28:32.486Z,22.61
2016-12-08T02:29:42.884Z,22.56
2016-12-08T02:30:53.271Z,22.56
2016-12-08T02:32:03.668Z,22.59
2016-12-08T02:33:14.042Z,22.57
2016-12-08T02:34:24.522Z,22.63
2016-12-08T02:35:34.913Z,22.61
2016-12-08T02:36:45.308Z,22.67
2016-12-08T02:37:55.722Z,22.67
2016-12-08T02:39:20.868Z,22.59
2016-12-08T02:40:31.254Z,22.66
2016-12-08T02:41:41.642Z,22.6
2016-12-08T02:42:52.036Z,22.7
2016-12-08T02:44:02.435Z,22.66
2016-12-08T02:45:13.032Z,22.66
2016-12-08T02:46:23.406Z,22.7
2016-12-08T02:47:33.794Z,22.78
2016-12-08T02:48:44.194Z,22.63
2016-12-08T02:49:54.583Z,22.64
2016-12-08T02:51:04.983Z,22.64
2016-12-08T02:52:15.357Z,22.67
2016-12-08T02:53:25.753Z,22.64
2016-12-08T02:54:36.148Z,22.69
2016-12-08T02:55:46.542Z,22.69
2016-12-08T02:56:57.127Z,22.69
2016-12-08T02:58:07.517Z,22.69
2016-12-08T02:59:32.439Z,22.74
2016-12-08T03:00:57.383Z,22.72
2016-12-08T03:02:07.783Z,22.64
2016-12-08T03:03:18.184Z,22.63
2016-12-08T03:04:28.585Z,22.64
2016-12-08T03:05:39.166Z,22.56
2016-12-08T03:06:49.549Z,22.6
2016-12-08T03:08:00.146Z,22.63
2016-12-08T03:09:10.536Z,22.48
2016-12-08T03:10:20.952Z,22.48
2016-12-08T03:11:31.542Z,22.57
2016-12-08T03:12:41.945Z,22.63
2016-12-08T03:15:17.393Z,22.51
2016-12-08T03:16:28.273Z,22.49
2016-12-08T03:17:38.680Z,22.54
2016-12-08T03:18:49.270Z,22.49
2016-12-08T03:20:00.040Z,22.46
2016-12-08T03:21:10.418Z,22.42
2016-12-08T03:22:20.807Z,22.46
2016-12-08T03:23:45.735Z,22.42
2016-12-08T03:24:56.330Z,22.38
2016-12-08T03:26:06.711Z,22.3
2016-12-08T03:27:17.096Z,22.17
2016-12-08T03:28:27.482Z,22.19
2016-12-08T03:29:38.060Z,22.12
2016-12-08T03:30:48.465Z,22.19
2016-12-08T03:31:59.252Z,22.29
2016-12-08T03:33:09.708Z,22.35
2016-12-08T03:34:20.210Z,22.45
2016-12-08T03:35:30.927Z,22.45
2016-12-08T03:36:41.898Z,22.45
2016-12-08T03:37:52.402Z,22.46
2016-12-08T03:39:02.891Z,22.51
2016-12-08T03:40:13.417Z,22.48
2016-12-08T03:41:24.111Z,22.51
2016-12-08T03:42:34.617Z,22.49
2016-12-08T03:43:45.117Z,22.6
2016-12-08T03:44:55.800Z,22.59
2016-12-08T03:46:06.677Z,22.54
2016-12-08T03:47:17.380Z,22.54
2016-12-08T03:48:28.380Z,22.49
2016-12-08T03:49:38.876Z,22.56
2016-12-08T03:50:49.589Z,22.61
2016-12-08T03:52:00.108Z,22.57
2016-12-08T03:53:10.612Z,22.51
2016-12-08T03:54:21.142Z,22.59
2016-12-08T03:55:31.640Z,22.67
2016-12-08T03:56:42.159Z,22.63
2016-12-08T03:57:52.668Z,22.72
2016-12-08T03:59:03.368Z,22.67
2016-12-08T04:00:13.868Z,22.66
2016-12-08T04:01:24.398Z,22.7
2016-12-08T04:02:34.893Z,22.69
2016-12-08T04:03:45.398Z,22.69
2016-12-08T04:04:55.912Z,22.6
2016-12-08T04:06:06.415Z,22.61
2016-12-08T04:07:16.923Z,22.56
2016-12-08T04:08:27.423Z,22.59
2016-12-08T04:11:03.158Z,22.61
2016-12-08T04:12:13.635Z,22.63
2016-12-08T04:13:38.670Z,22.69
2016-12-08T04:14:49.144Z,22.64
2016-12-08T04:15:59.631Z,22.63
2016-12-08T04:17:10.132Z,22.66
2016-12-08T04:18:20.597Z,22.67
2016-12-08T04:19:31.072Z,22.64
2016-12-08T04:20:41.569Z,22.63
2016-12-08T04:21:52.066Z,22.67
2016-12-08T04:23:02.767Z,22.7
2016-12-08T04:24:13.301Z,22.66
2016-12-08T04:25:23.784Z,22.59
2016-12-08T04:26:34.307Z,22.54
2016-12-08T04:27:44.900Z,22.59
2016-12-08T04:28:55.372Z,22.54
2016-12-08T04:30:06.086Z,22.48
2016-12-08T04:31:31.181Z,22.42
2016-12-08T04:32:57.103Z,22.46
2016-12-08T04:34:07.828Z,22.54
2016-12-08T04:35:18.507Z,22.51
2016-12-08T04:36:29.196Z,22.52
2016-12-08T04:37:39.903Z,22.49
2016-12-08T04:38:50.824Z,22.48
2016-12-08T04:40:01.546Z,22.46
2016-12-08T04:41:12.267Z,22.45
2016-12-08T04:42:22.944Z,22.49
2016-12-08T04:43:33.557Z,22.49
2016-12-08T04:44:45.010Z,22.56
2016-12-08T04:45:55.625Z,22.59
2016-12-08T04:47:06.235Z,22.51
2016-12-08T04:48:31.363Z,22.61
2016-12-08T04:49:42.100Z,22.48
2016-12-08T04:50:52.781Z,22.46
2016-12-08T04:52:03.446Z,22.46
2016-12-08T04:53:14.020Z,22.41
2016-12-08T04:54:24.500Z,22.35
2016-12-08T04:55:34.969Z,22.39
2016-12-08T04:56:45.428Z,22.33
2016-12-08T04:57:55.897Z,22.36
2016-12-08T04:59:06.346Z,22.41
2016-12-08T05:00:16.805Z,22.41
2016-12-08T05:01:27.246Z,22.45
2016-12-08T05:02:37.687Z,22.39
2016-12-08T05:03:48.134Z,22.36
2016-12-08T05:04:58.574Z,22.38
2016-12-08T05:06:09.011Z,22.46
2016-12-08T05:07:19.647Z,22.39
2016-12-08T05:08:30.089Z,22.48
2016-12-08T05:09:40.525Z,22.46
2016-12-08T05:11:05.508Z,22.46
2016-12-08T05:12:15.943Z,22.49
2016-12-08T05:13:26.385Z,22.41
2016-12-08T05:14:36.828Z,22.39
2016-12-08T05:15:47.268Z,22.27
2016-12-08T05:16:57.700Z,22.42
2016-12-08T05:18:08.335Z,22.39
2016-12-08T05:19:18.787Z,22.39
2016-12-08T05:20:29.221Z,22.42
2016-12-08T05:21:39.664Z,22.44
2016-12-08T05:22:50.099Z,22.44
2016-12-08T05:24:00.535Z,22.44
2016-12-08T05:25:10.985Z,22.42
2016-12-08T05:26:35.986Z,22.48
2016-12-08T05:27:46.423Z,22.48
2016-12-08T05:29:11.603Z,22.52
2016-12-08T05:30:22.044Z,22.49
2016-12-08T05:31:32.482Z,22.42
2016-12-08T05:32:42.922Z,22.46
2016-12-08T05:33:53.359Z,22.45
2016-12-08T05:35:03.996Z,22.41
2016-12-08T05:36:14.439Z,22.39
2016-12-08T05:37:24.877Z,22.24
2016-12-08T05:38:35.313Z,22.24
2016-12-08T05:39:45.752Z,22.3
2016-12-08T05:40:56.190Z,22.29
2016-12-08T05:42:06.629Z,22.15
2016-12-08T05:43:17.069Z,22.29
2016-12-08T05:44:27.506Z,22.33
2016-12-08T05:45:37.941Z,22.33
2016-12-08T05:46:48.578Z,22.31
2016-12-08T05:47:59.017Z,22.29
2016-12-08T05:49:09.458Z,22.19
2016-12-08T05:50:19.892Z,22.21
2016-12-08T05:51:30.329Z,22.17
2016-12-08T05:52:40.965Z,22.14
2016-12-08T05:53:51.406Z,22.2
2016-12-08T05:55:01.872Z,22.19
2016-12-08T05:56:12.311Z,22.08
2016-12-08T05:57:22.745Z,22.12
2016-12-08T05:58:33.377Z,22.04
2016-12-08T05:59:43.814Z,22.02
2016-12-08T06:00:54.247Z,21.99
2016-12-08T06:02:04.683Z,22.05
2016-12-08T06:03:15.120Z,22.02
2016-12-08T06:04:25.560Z,22.02
2016-12-08T06:05:36.004Z,21.98
2016-12-08T06:06:46.924Z,21.91
2016-12-08T06:07:57.356Z,21.91
2016-12-08T06:09:07.792Z,21.89
2016-12-08T06:10:18.433Z,21.91
2016-12-08T06:11:43.417Z,21.85
2016-12-08T06:12:53.856Z,21.89
2016-12-08T06:14:18.774Z,21.91
2016-12-08T06:15:29.164Z,21.93
2016-12-08T06:16:39.512Z,21.96
2016-12-08T06:17:49.837Z,21.94
2016-12-08T06:19:14.773Z,21.89
2016-12-08T06:20:25.153Z,21.75
2016-12-08T06:21:35.470Z,21.85
2016-12-08T06:22:45.834Z,21.83
2016-12-08T06:23:56.160Z,21.86
2016-12-08T06:25:06.504Z,21.89
2016-12-08T06:26:17.040Z,21.96
2016-12-08T06:27:27.394Z,21.91
2016-12-08T06:28:37.758Z,21.9
2016-12-08T06:29:48.101Z,21.85
2016-12-08T06:30:58.451Z,21.86
2016-12-08T06:32:23.562Z,21.94
2016-12-08T06:33:33.898Z,22.01
2016-12-08T06:34:44.251Z,22.06
2016-12-08T06:35:54.658Z,22.05
2016-12-08T06:37:05.219Z,22.04
2016-12-08T06:38:15.578Z,22.04
2016-12-08T06:39:25.974Z,22.06
2016-12-08T06:40:36.315Z,22.02
2016-12-08T06:41:46.712Z,22.06
2016-12-08T06:42:57.297Z,21.96
2016-12-08T06:44:07.670Z,21.93
2016-12-08T06:45:18.021Z,21.93
2016-12-08T06:46:28.349Z,21.94
2016-12-08T06:47:38.747Z,21.9
2016-12-08T06:48:49.324Z,21.85
2016-12-08T06:49:59.714Z,21.91
2016-12-08T06:51:10.054Z,21.79
2016-12-08T06:52:34.974Z,21.82
2016-12-08T06:53:45.548Z,21.81
2016-12-08T06:54:55.918Z,21.85
2016-12-08T06:56:06.297Z,21.75
2016-12-08T06:57:16.702Z,21.74
2016-12-08T06:58:27.062Z,21.66
2016-12-08T06:59:37.437Z,21.68
2016-12-08T07:00:47.846Z,21.63
2016-12-08T07:01:58.236Z,21.66
2016-12-08T07:03:08.656Z,21.71
2016-12-08T07:04:19.000Z,21.7
2016-12-08T07:05:43.883Z,21.77
2016-12-08T07:06:54.203Z,21.85
2016-12-08T07:08:04.552Z,21.85
2016-12-08T07:09:14.898Z,21.93
2016-12-08T07:10:25.277Z,21.9
2016-12-08T07:11:50.185Z,21.86
2016-12-08T07:13:00.527Z,22.04
2016-12-08T07:14:25.416Z,22.01
2016-12-08T07:15:35.775Z,22.04
2016-12-08T07:16:46.137Z,22.01
2016-12-08T07:17:56.489Z,22.15
2016-12-08T07:19:21.447Z,22.04
2016-12-08T07:20:32.003Z,22.14
2016-12-08T07:21:42.414Z,22.12
2016-12-08T07:22:52.836Z,22.11
2016-12-08T07:24:03.272Z,22.19
2016-12-08T07:25:13.639Z,22.19
2016-12-08T07:26:24.016Z,22.21
2016-12-08T07:27:34.398Z,22.12
2016-12-08T07:28:44.808Z,22.09
2016-12-08T07:29:55.222Z,22.15
2016-12-08T07:31:06.098Z,22.15
2016-12-08T07:32:16.737Z,22.08
2016-12-08T07:33:27.178Z,22.09
2016-12-08T07:34:37.612Z,22.14
2016-12-08T07:35:48.056Z,22.08
2016-12-08T07:36:58.494Z,22.11
2016-12-08T07:38:09.601Z,22.09
2016-12-08T07:39:19.917Z,22.05
2016-12-08T07:40:44.803Z,22.15
2016-12-08T07:41:55.129Z,22.15
2016-12-08T07:43:05.651Z,22.17
2016-12-08T07:44:15.965Z,22.21
2016-12-08T07:45:26.369Z,22.17
2016-12-08T07:46:36.775Z,22.17
2016-12-08T07:47:47.187Z,22.11
2016-12-08T07:48:57.793Z,22.09
2016-12-08T07:50:08.208Z,22.12
2016-12-08T07:51:18.614Z,22.06
2016-12-08T07:52:29.029Z,21.99
2016-12-08T07:53:39.435Z,22.02
2016-12-08T07:54:50.038Z,21.96
2016-12-08T07:56:00.449Z,21.77
2016-12-08T07:57:10.855Z,21.83
2016-12-08T07:58:35.813Z,21.81
2016-12-08T08:00:00.775Z,21.86
2016-12-08T08:01:25.737Z,21.83
2016-12-08T08:02:36.146Z,21.79
2016-12-08T08:03:46.557Z,21.81
2016-12-08T08:04:57.163Z,21.79
2016-12-08T08:06:07.574Z,21.74
2016-12-08T08:07:17.980Z,21.82
2016-12-08T08:08:28.387Z,21.64
2016-12-08T08:09:38.798Z,21.75
2016-12-08T08:10:49.205Z,21.71
2016-12-08T08:11:59.610Z,21.75
2016-12-08T08:13:10.024Z,21.82
2016-12-08T08:14:20.429Z,21.85
2016-12-08T08:15:30.836Z,21.89
2016-12-08T08:16:41.445Z,21.91
2016-12-08T08:17:51.857Z,21.86
2016-12-08T08:19:02.265Z,21.89
2016-12-08T08:20:12.674Z,21.96
2016-12-08T08:21:23.079Z,22.02
2016-12-08T08:22:33.486Z,21.99
2016-12-08T08:23:58.444Z,21.9
2016-12-08T08:25:08.856Z,21.91
2016-12-08T08:26:19.268Z,21.83
2016-12-08T08:27:29.674Z,21.85
2016-12-08T08:28:40.081Z,21.89
2016-12-08T08:29:50.496Z,21.85
2016-12-08T08:31:00.860Z,21.91
2016-12-08T08:32:11.175Z,21.91
2016-12-08T08:33:22.178Z,21.94
2016-12-08T08:34:32.492Z,21.94
2016-12-08T08:35:42.809Z,22.02
2016-12-08T08:36:53.126Z,22.14
2016-12-08T08:38:03.449Z,21.94
2016-12-08T08:39:13.968Z,22.04
2016-12-08T08:40:24.285Z,21.99
2016-12-08T08:41:34.603Z,22.06
2016-12-08T08:42:44.933Z,22.02
2016-12-08T08:43:55.276Z,22.02
2016-12-08T08:45:05.594Z,22.02
2016-12-08T08:46:15.913Z,21.98
2016-12-08T08:47:26.230Z,21.89
2016-12-08T08:48:36.549Z,21.77
2016-12-08T08:49:47.359Z,21.9
2016-12-08T08:50:57.672Z,21.77
2016-12-08T08:52:07.992Z,21.81
2016-12-08T08:53:18.310Z,21.77
2016-12-08T08:54:28.625Z,21.83
2016-12-08T08:55:38.941Z,21.85
2016-12-08T08:56:49.260Z,21.74
2016-12-08T08:58:14.146Z,21.77
2016-12-08T08:59:39.029Z,21.68
2016-12-08T09:01:03.916Z,21.7
2016-12-08T09:02:14.432Z,21.83
2016-12-08T09:03:24.750Z,21.83
2016-12-08T09:04:35.065Z,21.73
2016-12-08T09:05:45.385Z,21.77
2016-12-08T09:06:55.703Z,21.81
2016-12-08T09:08:06.219Z,21.82
2016-12-08T09:09:16.544Z,21.89
2016-12-08T09:10:26.863Z,21.89
2016-12-08T09:11:37.179Z,22.05
2016-12-08T09:12:47.494Z,22.01
2016-12-08T09:13:57.809Z,22.15
2016-12-08T09:15:08.131Z,22.2
2016-12-08T09:16:18.519Z,22.2
2016-12-08T09:17:28.934Z,22.3
2016-12-08T09:18:39.341Z,22.31
2016-12-08T09:19:49.948Z,22.39
2016-12-08T09:21:00.388Z,22.45
2016-12-08T09:22:10.791Z,22.54
2016-12-08T09:23:35.754Z,22.57
2016-12-08T09:24:46.359Z,22.59
2016-12-08T09:25:56.768Z,22.6
2016-12-08T09:27:07.662Z,22.6
2016-12-08T09:28:18.066Z,22.54
2016-12-08T09:29:28.478Z,22.57
2016-12-08T09:30:38.884Z,22.57
2016-12-08T09:31:49.319Z,22.57
2016-12-08T09:33:00.229Z,22.6
2016-12-08T09:34:10.640Z,22.63
2016-12-08T09:35:21.056Z,22.59
2016-12-08T09:36:31.666Z,22.64
2016-12-08T09:37:42.081Z,22.66
2016-12-08T09:38:52.487Z,22.72
2016-12-08T09:40:02.900Z,22.69
2016-12-08T09:41:13.306Z,22.72
2016-12-08T09:42:23.917Z,22.86
2016-12-08T09:43:34.326Z,22.81
2016-12-08T09:44:44.734Z,22.86
2016-12-08T09:45:55.141Z,22.84
2016-12-08T09:47:06.033Z,22.96
2016-12-08T09:48:16.676Z,23.01
2016-12-08T09:49:27.085Z,23.09
2016-12-08T09:50:37.496Z,23.19
2016-12-08T09:51:47.908Z,23.21
2016-12-08T09:52:58.316Z,23.23
2016-12-08T09:54:08.727Z,23.29
2016-12-08T09:55:19.136Z,23.18
2016-12-08T09:56:29.546Z,23.29
2016-12-08T09:57:39.951Z,23.32
2016-12-08T09:58:50.422Z,23.34
2016-12-08T10:00:01.150Z,23.18
2016-12-08T10:01:11.626Z,23.29
2016-12-08T10:02:22.061Z,23.25
2016-12-08T10:03:32.496Z,23.35
2016-12-08T10:04:42.935Z,23.32
2016-12-08T10:05:53.572Z,23.26
2016-12-08T10:07:04.013Z,23.38
2016-12-08T10:08:14.452Z,23.41
2016-12-08T10:09:24.886Z,23.35
2016-12-08T10:10:35.325Z,23.42
2016-12-08T10:11:45.963Z,23.49
2016-12-08T10:12:57.379Z,23.47
2016-12-08T10:14:07.815Z,23.53
2016-12-08T10:15:18.285Z,23.62
2016-12-08T10:16:28.724Z,23.64
2016-12-08T10:17:39.361Z,23.6
2016-12-08T10:18:49.800Z,23.62
2016-12-08T10:20:00.747Z,23.63
2016-12-08T10:21:11.182Z,23.68
2016-12-08T10:22:21.649Z,23.74
2016-12-08T10:23:32.578Z,23.63
2016-12-08T10:24:43.045Z,23.74
2016-12-08T10:26:08.029Z,23.79
2016-12-08T10:27:33.012Z,23.72
2016-12-08T10:28:43.446Z,23.77
2016-12-08T10:29:53.892Z,23.75
2016-12-08T10:31:04.332Z,23.9
2016-12-08T10:32:14.769Z,23.96
2016-12-08T10:33:25.174Z,23.94
2016-12-08T10:34:36.118Z,23.96
2016-12-08T10:35:46.439Z,23.97
2016-12-08T10:36:56.772Z,24.04
2016-12-08T10:38:07.088Z,23.96
2016-12-08T10:39:17.409Z,23.9
2016-12-08T10:40:27.727Z,23.86
2016-12-08T10:41:38.055Z,23.77
2016-12-08T10:42:48.379Z,23.86
2016-12-08T10:43:58.698Z,23.87
2016-12-08T10:45:09.018Z,23.86
2016-12-08T10:46:19.543Z,23.92
2016-12-08T10:47:29.864Z,23.97
2016-12-08T10:48:40.181Z,23.89
2016-12-08T10:49:50.500Z,23.87
2016-12-08T10:51:00.822Z,23.9
2016-12-08T10:52:11.340Z,23.89
2016-12-08T10:53:21.659Z,23.9
2016-12-08T10:54:31.977Z,24.02
2016-12-08T10:55:42.295Z,24.04
2016-12-08T10:56:52.647Z,24
2016-12-08T10:58:02.964Z,24.02
2016-12-08T10:59:13.279Z,24.05
2016-12-08T11:00:23.598Z,24.08
2016-12-08T11:01:33.926Z,24.21
2016-12-08T11:02:44.245Z,24.19
2016-12-08T11:03:54.562Z,24.19
2016-12-08T11:05:04.885Z,24.26
2016-12-08T11:06:15.202Z,24.15
2016-12-08T11:07:25.522Z,24.15
2016-12-08T11:08:35.848Z,24.15
2016-12-08T11:09:46.228Z,24.15
2016-12-08T11:10:56.662Z,24.3
2016-12-08T11:12:07.102Z,24.41
2016-12-08T11:13:17.535Z,24.6
2016-12-08T11:14:27.977Z,24.79
2016-12-08T11:15:38.618Z,24.86
2016-12-08T11:16:49.068Z,24.87
2016-12-08T11:17:59.500Z,24.94
2016-12-08T11:19:09.939Z,25.02
2016-12-08T11:20:20.374Z,25.14
2016-12-08T11:22:56.733Z,25.31
2016-12-08T11:24:07.170Z,25.29
2016-12-08T11:25:17.599Z,25.36
2016-12-08T11:26:28.235Z,25.54
2016-12-08T11:27:38.668Z,25.57
2016-12-08T11:28:49.102Z,25.64
2016-12-08T11:29:59.558Z,25.81
2016-12-08T11:31:10.088Z,25.85
2016-12-08T11:32:20.827Z,25.89
2016-12-08T11:33:31.357Z,25.97
2016-12-08T11:34:41.891Z,26.17
2016-12-08T11:35:52.418Z,26.32
2016-12-08T11:38:28.000Z,26.49
2016-12-08T11:41:03.589Z,26.78
2016-12-08T11:42:14.127Z,26.83
2016-12-08T11:43:39.385Z,26.9
2016-12-08T11:44:49.920Z,27.08
2016-12-08T11:46:00.452Z,27.12
2016-12-08T11:47:10.984Z,27.18
2016-12-08T11:48:21.514Z,27.23
2016-12-08T11:49:32.242Z,27.42
2016-12-08T11:50:42.779Z,27.65
2016-12-08T11:51:53.308Z,27.84
2016-12-08T11:53:04.364Z,27.96
2016-12-08T11:54:14.896Z,27.84
2016-12-08T11:55:25.625Z,27.87
2016-12-08T11:56:36.196Z,27.88
2016-12-08T11:57:46.729Z,27.99
2016-12-08T11:58:57.258Z,28.11
2016-12-08T12:00:07.792Z,28.25
2016-12-08T12:01:18.525Z,28.08
2016-12-08T12:02:43.585Z,28.3
2016-12-08T12:03:54.114Z,28.3
2016-12-08T12:05:05.152Z,28.33
2016-12-08T12:06:15.889Z,28.23
2016-12-08T12:07:26.450Z,28.23
2016-12-08T12:08:36.980Z,28.06
2016-12-08T12:09:47.513Z,28.14
2016-12-08T12:10:58.046Z,28.09
2016-12-08T12:12:23.307Z,28.3
2016-12-08T12:13:33.839Z,28.28
2016-12-08T12:14:44.374Z,28.57
2016-12-08T12:15:54.855Z,28.77
2016-12-08T12:17:05.296Z,28.74
2016-12-08T12:18:15.735Z,28.67
2016-12-08T12:19:26.178Z,28.62
2016-12-08T12:20:51.169Z,28.58
2016-12-08T12:22:01.619Z,28.62
2016-12-08T12:23:12.744Z,28.62
2016-12-08T12:24:37.730Z,28.57
2016-12-08T12:26:02.715Z,28.92
2016-12-08T12:27:42.253Z,29.51
2016-12-08T12:28:52.891Z,29.7
2016-12-08T12:30:03.335Z,29.82
2016-12-08T12:31:28.319Z,29.99
2016-12-08T12:32:38.756Z,30.22
2016-12-08T12:33:49.196Z,30.01
2016-12-08T12:34:59.633Z,30.19
2016-12-08T12:36:10.082Z,30.3
2016-12-08T12:37:50.106Z,30.26
2016-12-08T12:39:00.746Z,30.4
2016-12-08T12:40:11.693Z,30.59
2016-12-08T12:41:22.132Z,30.73
2016-12-08T12:42:33.062Z,30.78
2016-12-08T12:43:43.504Z,30.93
2016-12-08T12:46:19.128Z,30.79
2016-12-08T12:47:29.572Z,30.88
2016-12-08T12:48:40.022Z,30.85
2016-12-08T12:49:51.361Z,30.88
2016-12-08T12:51:01.890Z,30.86
2016-12-08T12:52:12.395Z,31.07
2016-12-08T12:53:37.355Z,31.03
2016-12-08T12:54:47.678Z,31.45
2016-12-08T12:55:58.808Z,31.32
2016-12-08T12:57:09.129Z,31.07
2016-12-08T12:58:19.474Z,30.81
2016-12-08T12:59:29.792Z,31.04
2016-12-08T13:00:40.317Z,31.25
2016-12-08T13:01:51.143Z,31.41
2016-12-08T13:03:01.472Z,31.68
2016-12-08T13:04:26.369Z,31.62
2016-12-08T13:05:36.898Z,31.75
2016-12-08T13:06:47.225Z,31.88
2016-12-08T13:07:57.553Z,32.05
2016-12-08T13:09:07.881Z,32.13
2016-12-08T13:10:18.203Z,32.14
2016-12-08T13:11:28.755Z,32.13
2016-12-08T13:12:39.078Z,32.09
2016-12-08T13:13:49.404Z,31.82
2016-12-08T13:14:59.729Z,31.92
2016-12-08T13:16:10.053Z,32.09
2016-12-08T13:17:20.577Z,32.27
2016-12-08T13:18:30.933Z,32.43
2016-12-08T13:19:41.258Z,32.14
2016-12-08T13:20:51.751Z,32.09
2016-12-08T13:22:02.554Z,32.44
2016-12-08T13:23:13.081Z,32.53
2016-12-08T13:28:40.628Z,32.29
2016-12-08T13:29:50.964Z,32.06
2016-12-08T13:31:01.301Z,31.87
2016-12-08T13:32:11.632Z,31.92
2016-12-08T13:33:21.958Z,31.87
2016-12-08T13:34:32.483Z,31.88
2016-12-08T13:37:07.712Z,31.92
2016-12-08T13:38:18.034Z,32.13
2016-12-08T13:39:28.389Z,32.14
2016-12-08T13:40:38.721Z,31.79
2016-12-08T13:41:49.048Z,31.79
2016-12-08T13:42:59.376Z,31.75
2016-12-08T13:44:09.702Z,31.97
2016-12-08T13:45:20.509Z,31.9
2016-12-08T13:46:45.405Z,31.92
2016-12-08T13:47:56.201Z,32.16
2016-12-08T13:50:31.624Z,33
2016-12-08T13:51:41.949Z,32.71
2016-12-08T13:53:06.849Z,32.77
2016-12-08T13:54:17.646Z,32.85
2016-12-08T13:55:28.667Z,32.78
2016-12-08T13:58:03.891Z,33.37
2016-12-08T13:59:15.170Z,33.49
2016-12-08T14:00:25.496Z,33.11
2016-12-08T14:01:36.021Z,32.99
2016-12-08T14:03:00.923Z,32.9
2016-12-08T14:04:11.741Z,33.05
2016-12-08T14:05:36.837Z,33.21
2016-12-08T14:06:47.180Z,33.43
2016-12-08T14:07:57.520Z,33.56
2016-12-08T14:09:07.860Z,33.56
2016-12-08T14:10:32.779Z,33.49
2016-12-08T14:11:43.799Z,33.62
2016-12-08T14:12:54.138Z,33.44
2016-12-08T14:14:04.862Z,33.77
2016-12-08T14:30:46.013Z,33.09
2016-12-08T15:18:44.466Z,31.85
2016-12-08T15:19:55.015Z,31.87
2016-12-08T15:21:05.573Z,32.07
2016-12-08T15:22:16.145Z,32.32
2016-12-08T15:23:26.686Z,32.36
2016-12-08T15:24:37.746Z,32.5
2016-12-08T15:25:48.309Z,32.4
2016-12-08T15:26:59.398Z,32.32
2016-12-08T15:28:09.963Z,32.29
2016-12-08T15:29:20.514Z,32.05
2016-12-08T15:30:45.586Z,31.92
2016-12-08T15:31:56.156Z,31.91
2016-12-08T15:33:06.703Z,31.74
2016-12-08T15:34:17.247Z,31.64
2016-12-08T15:35:28.025Z,31.9
2016-12-08T15:36:38.584Z,31.9
2016-12-08T15:37:49.148Z,31.88
2016-12-08T15:38:59.721Z,31.88
2016-12-08T15:40:10.306Z,31.76
2016-12-08T15:41:21.083Z,31.9
2016-12-08T15:42:31.679Z,31.79
2016-12-08T15:43:56.767Z,31.6
2016-12-08T15:45:21.847Z,31.76
2016-12-08T15:46:32.514Z,31.76
2016-12-08T15:47:43.092Z,31.9
2016-12-08T15:49:08.358Z,32.07
2016-12-08T15:52:35.097Z,32.13
2016-12-08T15:53:45.663Z,32.21
2016-12-08T15:54:56.246Z,32.14
2016-12-08T15:57:46.445Z,32.24
2016-12-08T15:58:57.011Z,32.22
2016-12-08T16:00:08.066Z,32.27
2016-12-08T16:01:19.014Z,32.36
2016-12-08T16:02:44.127Z,32.22
2016-12-08T16:03:54.611Z,31.99
2016-12-08T16:05:05.065Z,31.94
2016-12-08T16:06:15.539Z,31.99
2016-12-08T16:07:26.000Z,32.1
2016-12-08T16:08:36.551Z,32.05
2016-12-08T16:09:47.002Z,31.88
2016-12-08T16:10:57.486Z,31.88
2016-12-08T16:12:07.974Z,31.91
2016-12-08T16:14:43.584Z,31.59
2016-12-08T16:16:08.617Z,31.64
2016-12-08T16:17:19.086Z,31.64
2016-12-08T16:18:44.208Z,31.68
2016-12-08T16:19:54.682Z,31.69
2016-12-08T16:21:05.155Z,31.5
2016-12-08T16:22:15.626Z,31.37
2016-12-08T16:23:40.654Z,31.47
2016-12-08T16:24:51.235Z,31.59
2016-12-08T16:26:01.694Z,31.64
2016-12-08T16:27:12.676Z,31.65
2016-12-08T16:28:23.133Z,31.78
2016-12-08T16:29:33.708Z,31.85
2016-12-08T16:30:44.180Z,31.97
2016-12-08T16:31:54.662Z,31.9
2016-12-08T16:33:05.130Z,31.87
2016-12-08T16:34:15.625Z,32.02
2016-12-08T16:35:26.296Z,31.99
2016-12-08T16:36:36.968Z,32.05
2016-12-08T16:37:47.426Z,31.99
2016-12-08T16:38:57.914Z,32.09
2016-12-08T16:41:33.610Z,32.06
2016-12-08T16:42:44.111Z,32.12
2016-12-08T16:43:54.615Z,32.12
2016-12-08T16:45:05.105Z,31.97
2016-12-08T16:46:15.589Z,31.9
2016-12-08T16:47:26.061Z,31.69
2016-12-08T16:48:36.534Z,31.53
2016-12-08T16:49:47.027Z,31.5
2016-12-08T16:50:57.490Z,31.53
2016-12-08T16:52:08.147Z,31.68
2016-12-08T16:53:33.166Z,31.75